createdAt,value
2023-05-01T00:01:55.751Z,2.42
2023-05-01T00:04:23.689Z,2.30
2023-05-01T00:06:52.985Z,2.22
2023-05-01T00:09:20.915Z,1.77
2023-05-01T00:11:48.791Z,2.42
2023-05-01T00:14:16.669Z,2.28
2023-05-01T00:16:46.175Z,2.20
2023-05-01T00:19:18.221Z,2.58
2023-05-01T00:21:47.935Z,2.10
2023-05-01T00:24:17.667Z,2.13
2023-05-01T00:26:46.243Z,2.10
2023-05-01T00:29:14.583Z,2.03
2023-05-01T00:31:43.358Z,1.70
2023-05-01T00:34:11.737Z,1.65
2023-05-01T00:36:39.692Z,1.70
2023-05-01T00:39:08.524Z,2.08
2023-05-01T00:41:37.820Z,2.20
2023-05-01T00:44:06.210Z,2.10
2023-05-01T00:46:35.421Z,2.20
2023-05-01T00:49:03.901Z,2.92
2023-05-01T00:51:32.988Z,1.92
2023-05-01T00:54:01.392Z,2.05
2023-05-01T00:56:29.520Z,1.92
2023-05-01T00:58:58.861Z,2.38
2023-05-01T01:01:26.924Z,2.53
2023-05-01T01:03:55.549Z,1.90
2023-05-01T01:06:31.302Z,2.03
2023-05-01T01:09:12.947Z,2.25
2023-05-01T01:11:49.020Z,1.95
2023-05-01T01:14:22.335Z,2.25
2023-05-01T01:16:58.538Z,2.05
2023-05-01T01:20:13.040Z,2.75
2023-05-01T01:22:44.789Z,2.45
2023-05-01T01:25:40.324Z,2.00
2023-05-01T01:28:36.876Z,2.35
2023-05-01T01:31:15.298Z,2.53
2023-05-01T01:33:56.390Z,2.63
2023-05-01T01:36:35.424Z,2.63
2023-05-01T01:39:12.427Z,1.92
2023-05-01T01:41:42.804Z,2.17
2023-05-01T01:44:17.546Z,1.85
2023-05-01T01:46:48.407Z,2.72
2023-05-01T01:49:21.346Z,2.55
2023-05-01T01:51:51.131Z,2.85
2023-05-01T01:54:24.680Z,3.05
2023-05-01T01:56:54.201Z,2.40
2023-05-01T01:59:24.143Z,2.60
2023-05-01T02:01:54.534Z,2.83
2023-05-01T02:04:25.247Z,3.38
2023-05-01T02:06:54.243Z,2.53
2023-05-01T02:09:24.806Z,2.58
2023-05-01T02:11:54.554Z,2.55
2023-05-01T02:14:26.166Z,2.60
2023-05-01T02:16:54.980Z,3.08
2023-05-01T02:19:25.026Z,3.10
2023-05-01T02:21:55.106Z,2.72
2023-05-01T02:24:25.783Z,2.70
2023-05-01T02:26:59.517Z,3.17
2023-05-01T02:29:28.459Z,2.72
2023-05-01T02:31:57.087Z,3.15
2023-05-01T02:34:26.720Z,3.17
2023-05-01T02:36:54.791Z,2.60
2023-05-01T02:39:23.381Z,3.38
2023-05-01T02:41:53.848Z,3.03
2023-05-01T02:44:25.254Z,3.42
2023-05-01T02:46:56.392Z,3.05
2023-05-01T02:49:26.093Z,2.78
2023-05-01T02:51:57.708Z,3.63
2023-05-01T02:54:26.068Z,3.05
2023-05-01T02:56:54.233Z,3.30
2023-05-01T02:59:22.144Z,3.35
2023-05-01T03:01:50.292Z,3.13
2023-05-01T03:04:19.576Z,3.05
2023-05-01T03:06:48.948Z,3.28
2023-05-01T03:09:17.189Z,3.03
2023-05-01T03:11:45.105Z,3.42
2023-05-01T03:14:13.018Z,3.22
2023-05-01T03:16:41.136Z,2.78
2023-05-01T03:19:09.031Z,3.20
2023-05-01T03:21:37.082Z,3.25
2023-05-01T03:24:07.022Z,3.17
2023-05-01T03:26:35.193Z,3.05
2023-05-01T03:29:03.200Z,2.78
2023-05-01T03:31:32.109Z,3.70
2023-05-01T03:34:00.827Z,3.58
2023-05-01T03:36:29.052Z,3.38
2023-05-01T03:38:57.176Z,3.03
2023-05-01T03:41:58.966Z,2.90
2023-05-01T03:44:30.175Z,3.53
2023-05-01T03:46:58.233Z,2.58
2023-05-01T03:49:29.628Z,2.60
2023-05-01T03:51:57.638Z,3.28
2023-05-01T03:54:25.809Z,2.85
2023-05-01T03:57:14.624Z,2.90
2023-05-01T03:59:43.749Z,3.17
2023-05-01T04:02:12.572Z,2.25
2023-05-01T04:04:40.940Z,3.40
2023-05-01T04:07:09.299Z,2.55
2023-05-01T04:09:37.258Z,2.85
2023-05-01T04:12:05.796Z,2.58
2023-05-01T04:14:35.120Z,2.85
2023-05-01T04:17:03.766Z,2.97
2023-05-01T04:19:35.720Z,2.63
2023-05-01T04:22:03.717Z,2.60
2023-05-01T04:24:32.961Z,2.88
2023-05-01T04:27:00.897Z,2.53
2023-05-01T04:29:28.771Z,3.30
2023-05-01T04:32:01.534Z,2.38
2023-05-01T04:34:30.187Z,2.38
2023-05-01T04:36:58.179Z,2.72
2023-05-01T04:39:26.356Z,2.80
2023-05-01T04:41:54.824Z,3.05
2023-05-01T04:44:22.932Z,2.30
2023-05-01T04:46:51.267Z,2.50
2023-05-01T04:49:20.854Z,2.63
2023-05-01T04:51:48.903Z,2.60
2023-05-01T04:54:18.777Z,2.60
2023-05-01T04:56:47.836Z,2.33
2023-05-01T04:59:16.006Z,2.50
2023-05-01T05:01:44.000Z,2.85
2023-05-01T05:04:12.501Z,3.00
2023-05-01T05:06:42.156Z,2.97
2023-05-01T05:09:17.420Z,1.90
2023-05-01T05:11:46.682Z,2.50
2023-05-01T05:14:22.016Z,2.97
2023-05-01T05:16:50.214Z,2.75
2023-05-01T05:19:18.267Z,2.28
2023-05-01T05:21:47.785Z,1.90
2023-05-01T05:24:15.733Z,2.40
2023-05-01T05:26:43.715Z,2.97
2023-05-01T05:29:11.721Z,2.85
2023-05-01T05:31:39.735Z,2.35
2023-05-01T05:34:08.333Z,2.22
2023-05-01T05:36:36.605Z,2.85
2023-05-01T06:14:23.325Z,1.77
2023-05-01T06:16:51.338Z,1.67
2023-05-01T06:19:19.226Z,2.30
2023-05-01T06:21:50.758Z,2.08
2023-05-01T06:24:19.087Z,2.75
2023-05-01T06:26:49.436Z,1.70
2023-05-01T06:29:17.498Z,2.13
2023-05-01T06:31:47.359Z,1.77
2023-05-01T06:34:15.654Z,1.63
2023-05-01T06:36:51.580Z,1.95
2023-05-01T06:39:19.586Z,1.52
2023-05-01T06:41:48.350Z,1.98
2023-05-01T06:44:17.287Z,1.70
2023-05-01T06:46:46.695Z,1.92
2023-05-01T06:49:14.759Z,1.63
2023-05-01T06:51:42.672Z,1.90
2023-05-01T06:54:13.207Z,1.88
2023-05-01T06:56:41.261Z,1.95
2023-05-01T06:59:09.157Z,1.83
2023-05-01T07:01:37.449Z,1.95
2023-05-01T07:04:07.151Z,1.60
2023-05-01T07:06:35.374Z,2.53
2023-05-01T07:09:03.501Z,2.00
2023-05-01T07:11:32.052Z,3.25
2023-05-01T07:14:01.625Z,3.20
2023-05-01T07:16:29.606Z,1.92
2023-05-01T07:18:57.591Z,2.00
2023-05-01T07:21:27.015Z,1.73
2023-05-01T07:23:54.922Z,1.95
2023-05-01T07:26:23.840Z,2.10
2023-05-01T07:28:51.806Z,1.30
2023-05-01T07:31:19.810Z,1.70
2023-05-01T07:33:48.049Z,2.95
2023-05-01T07:36:18.433Z,2.25
2023-05-01T07:38:48.282Z,2.20
2023-05-01T07:41:16.288Z,2.22
2023-05-01T07:43:44.270Z,1.70
2023-05-01T07:46:12.643Z,1.70
2023-05-01T07:48:40.836Z,1.77
2023-05-01T07:51:08.792Z,1.95
2023-05-01T07:53:36.905Z,2.00
2023-05-01T07:56:10.202Z,3.00
2023-05-01T07:58:38.609Z,1.80
2023-05-01T08:01:07.129Z,1.45
2023-05-01T08:03:35.245Z,1.70
2023-05-01T08:06:03.498Z,1.65
2023-05-01T08:08:31.601Z,1.98
2023-05-01T08:10:59.479Z,2.20
2023-05-01T08:13:28.935Z,1.63
2023-05-01T08:15:59.166Z,2.13
2023-05-01T08:18:27.270Z,1.55
2023-05-01T08:20:55.309Z,1.73
2023-05-01T08:23:24.942Z,1.70
2023-05-01T08:25:53.067Z,1.25
2023-05-01T08:28:21.727Z,1.50
2023-05-01T08:30:51.122Z,1.42
2023-05-01T08:33:19.112Z,1.40
2023-05-01T08:35:47.269Z,1.58
2023-05-01T08:38:15.842Z,2.00
2023-05-01T08:40:52.159Z,2.03
2023-05-01T08:43:20.547Z,2.50
2023-05-01T08:45:49.372Z,1.77
2023-05-01T08:48:21.004Z,1.83
2023-05-01T08:50:50.206Z,1.50
2023-05-01T08:53:19.769Z,1.50
2023-05-01T08:55:50.554Z,1.60
2023-05-01T08:58:20.211Z,1.48
2023-05-01T09:00:51.145Z,1.60
2023-05-01T09:03:22.578Z,2.20
2023-05-01T09:05:51.344Z,1.83
2023-05-01T09:08:20.704Z,1.67
2023-05-01T09:10:52.801Z,1.45
2023-05-01T09:13:21.339Z,1.50
2023-05-01T09:15:49.413Z,1.52
2023-05-01T09:18:17.885Z,1.40
2023-05-01T09:20:47.588Z,1.40
2023-05-01T09:23:18.233Z,1.25
2023-05-01T09:25:47.048Z,2.60
2023-05-01T09:28:15.361Z,1.55
2023-05-01T09:30:43.465Z,1.73
2023-05-01T09:33:12.805Z,2.00
2023-05-01T09:35:56.020Z,1.40
2023-05-01T09:38:25.736Z,1.27
2023-05-01T09:40:57.153Z,1.45
2023-05-01T09:43:29.265Z,1.20
2023-05-01T09:46:01.932Z,1.58
2023-05-01T09:48:32.066Z,1.67
2023-05-01T09:51:21.261Z,1.40
2023-05-01T09:53:49.365Z,1.45
2023-05-01T09:56:17.993Z,1.35
2023-05-01T09:58:46.760Z,1.48
2023-05-01T10:01:15.340Z,1.60
2023-05-01T10:03:45.147Z,1.52
2023-05-01T10:06:28.610Z,2.17
2023-05-01T10:08:56.749Z,2.05
2023-05-01T10:11:26.833Z,1.52
2023-05-01T10:14:08.728Z,1.55
2023-05-01T10:16:38.556Z,1.52
2023-05-01T10:19:07.683Z,1.70
2023-05-01T10:21:37.076Z,1.67
2023-05-01T10:24:06.098Z,1.50
2023-05-01T10:26:34.603Z,1.63
2023-05-01T10:29:03.129Z,1.65
2023-05-01T10:31:33.194Z,1.40
2023-05-01T10:34:04.895Z,1.77
2023-05-01T10:36:39.175Z,1.70
2023-05-01T10:39:08.135Z,1.90
2023-05-01T10:42:04.870Z,1.73
2023-05-01T10:44:34.683Z,1.50
2023-05-01T10:47:37.767Z,1.75
2023-05-01T10:50:11.805Z,1.90
2023-05-01T10:55:38.185Z,1.45
2023-05-01T10:58:06.557Z,2.10
2023-05-01T11:00:34.736Z,1.50
2023-05-01T11:03:36.087Z,1.85
2023-05-01T11:06:07.999Z,1.75
2023-05-01T11:08:38.525Z,1.60
2023-05-01T11:11:47.823Z,1.42
2023-05-01T11:14:18.091Z,1.95
2023-05-01T11:16:48.926Z,2.03
2023-05-01T11:19:49.450Z,1.83
2023-05-01T11:22:20.660Z,1.77
2023-05-01T11:24:49.410Z,1.40
2023-05-01T11:27:18.182Z,1.85
2023-05-01T11:29:48.670Z,1.63
2023-05-01T11:32:23.863Z,2.03
2023-05-01T11:34:52.564Z,1.80
2023-05-01T11:37:20.834Z,1.75
2023-05-01T11:39:50.533Z,1.88
2023-05-01T11:42:21.891Z,2.30
2023-05-01T11:45:11.930Z,2.30
2023-05-01T11:47:40.559Z,1.52
2023-05-01T11:50:10.476Z,1.70
2023-05-01T11:52:46.661Z,2.05
2023-05-01T11:55:14.804Z,2.33
2023-05-01T11:57:47.740Z,2.03
2023-05-01T12:00:27.558Z,2.45
2023-05-01T12:03:03.256Z,1.88
2023-05-01T12:05:35.449Z,2.10
2023-05-01T12:08:11.794Z,6.55
2023-05-01T12:10:42.150Z,1.83
2023-05-01T12:13:11.522Z,2.05
2023-05-01T12:15:44.192Z,2.33
2023-05-01T12:18:13.371Z,2.25
2023-05-01T12:20:43.108Z,1.90
2023-05-01T12:23:12.655Z,2.00
2023-05-01T12:25:42.912Z,1.95
2023-05-01T12:28:12.448Z,1.90
2023-05-01T12:30:42.553Z,2.03
2023-05-01T12:33:12.772Z,1.80
2023-05-01T12:35:45.393Z,2.40
2023-05-01T12:38:18.382Z,1.90
2023-05-01T12:40:54.435Z,2.17
2023-05-01T12:43:24.410Z,2.00
2023-05-01T12:45:54.474Z,2.10
2023-05-01T12:48:25.908Z,2.33
2023-05-01T12:50:55.457Z,2.20
2023-05-01T12:53:24.288Z,1.70
2023-05-01T12:55:57.391Z,2.28
2023-05-01T12:58:35.446Z,2.50
2023-05-01T13:01:07.791Z,1.90
2023-05-01T13:03:39.367Z,2.13
2023-05-01T13:06:11.583Z,2.00
2023-05-01T13:11:13.081Z,1.50
2023-05-01T13:13:45.305Z,2.00
2023-05-01T13:16:18.557Z,1.80
2023-05-01T13:18:48.009Z,2.00
2023-05-01T13:21:17.428Z,2.35
2023-05-01T13:23:54.893Z,2.03
2023-05-01T13:26:28.161Z,1.83
2023-05-01T13:29:00.064Z,2.38
2023-05-01T13:31:31.395Z,1.80
2023-05-01T13:34:02.516Z,2.20
2023-05-01T13:36:33.907Z,1.98
2023-05-01T13:39:02.039Z,2.45
2023-05-01T13:41:30.522Z,2.35
2023-05-01T13:43:58.788Z,1.90
2023-05-01T13:46:28.184Z,2.55
2023-05-01T13:49:00.110Z,1.98
2023-05-01T13:51:28.261Z,2.25
2023-05-01T13:53:57.372Z,1.80
2023-05-01T13:56:25.539Z,2.63
2023-05-01T13:58:53.609Z,2.33
2023-05-01T14:01:24.259Z,2.33
2023-05-01T14:03:52.982Z,2.05
2023-05-01T14:06:24.205Z,2.00
2023-05-01T14:08:54.390Z,2.28
2023-05-01T14:11:25.539Z,2.00
2023-05-01T14:13:56.263Z,2.00
2023-05-01T14:16:26.177Z,2.00
2023-05-01T14:18:56.912Z,2.55
2023-05-01T14:21:28.548Z,2.30
2023-05-01T14:24:00.264Z,2.17
2023-05-01T14:26:28.379Z,2.08
2023-05-01T14:28:56.399Z,2.30
2023-05-01T14:31:29.154Z,2.00
2023-05-01T14:33:58.621Z,2.15
2023-05-01T14:36:31.193Z,2.20
2023-05-01T14:39:00.250Z,2.15
2023-05-01T14:41:29.448Z,2.10
2023-05-01T14:43:57.593Z,2.10
2023-05-01T14:46:29.891Z,2.72
2023-05-01T14:49:01.974Z,2.55
2023-05-01T14:51:34.411Z,2.28
2023-05-01T14:54:02.432Z,2.20
2023-05-01T14:56:30.514Z,1.83
2023-05-01T14:59:00.043Z,2.00
2023-05-01T15:01:28.187Z,1.83
2023-05-01T15:03:56.479Z,2.20
2023-05-01T15:06:25.654Z,1.75
2023-05-01T15:08:55.225Z,3.08
2023-05-01T15:11:26.008Z,2.28
2023-05-01T15:13:58.380Z,2.58
2023-05-01T15:16:26.624Z,2.25
2023-05-01T15:18:55.152Z,2.00
2023-05-01T15:21:23.078Z,2.10
2023-05-01T15:23:50.966Z,2.17
2023-05-01T15:26:20.580Z,2.30
2023-05-01T15:28:48.522Z,1.90
2023-05-01T15:31:19.159Z,2.33
2023-05-01T15:33:47.269Z,1.95
2023-05-01T15:36:15.212Z,2.45
2023-05-01T15:38:43.352Z,2.17
2023-05-01T15:41:11.351Z,2.75
2023-05-01T15:43:40.961Z,4.05
2023-05-01T15:46:09.154Z,1.98
2023-05-01T15:48:37.193Z,2.40
2023-05-01T15:51:05.590Z,2.22
2023-05-01T15:53:33.658Z,1.92
2023-05-01T15:56:01.704Z,2.60
2023-05-01T15:58:29.619Z,2.50
2023-05-01T16:00:59.010Z,2.17
2023-05-01T16:03:29.146Z,2.30
2023-05-01T16:05:57.673Z,2.00
2023-05-01T16:08:28.638Z,2.30
2023-05-01T16:10:58.152Z,2.38
2023-05-01T16:13:26.121Z,2.17
2023-05-01T16:15:54.148Z,2.22
2023-05-01T16:18:25.837Z,2.17
2023-05-01T16:20:55.168Z,1.88
2023-05-01T16:23:25.636Z,2.55
2023-05-01T16:25:53.720Z,2.40
2023-05-01T16:28:21.700Z,2.25
2023-05-01T16:30:50.381Z,2.38
2023-05-01T16:33:20.663Z,2.72
2023-05-01T16:35:50.356Z,2.50
2023-05-01T16:38:19.264Z,2.75
2023-05-01T16:40:49.151Z,2.70
2023-05-01T16:43:17.675Z,2.67
2023-05-01T16:45:47.047Z,2.78
2023-05-01T16:48:19.259Z,2.30
2023-05-01T16:50:47.340Z,5.38
2023-05-01T16:53:19.100Z,4.47
2023-05-01T16:55:47.127Z,2.70
2023-05-01T16:58:15.106Z,2.70
2023-05-01T17:00:44.524Z,2.83
2023-05-01T17:03:16.259Z,3.03
2023-05-01T17:05:44.480Z,3.00
2023-05-01T17:08:12.616Z,3.25
2023-05-01T17:10:41.954Z,2.78
2023-05-01T17:13:10.013Z,2.53
2023-05-01T17:15:38.045Z,2.63
2023-05-01T17:18:07.710Z,2.70
2023-05-01T17:20:35.997Z,3.00
2023-05-01T17:23:04.246Z,2.80
2023-05-01T17:25:32.226Z,3.17
2023-05-01T17:28:01.612Z,3.30
2023-05-01T17:30:29.553Z,2.47
2023-05-01T17:32:58.097Z,2.50
2023-05-01T17:35:26.763Z,2.97
2023-05-01T17:37:54.791Z,3.28
2023-05-01T17:40:22.792Z,5.20
2023-05-01T17:42:50.728Z,10.35
2023-05-01T17:45:20.571Z,2.88
2023-05-01T17:47:48.628Z,3.40
2023-05-01T17:50:16.718Z,3.83
2023-05-01T17:52:45.524Z,2.70
2023-05-01T17:55:17.193Z,2.78
2023-05-01T17:57:47.741Z,3.60
2023-05-01T18:00:16.635Z,3.50
2023-05-01T18:02:47.522Z,3.70
2023-05-01T18:05:16.316Z,3.38
2023-05-01T18:07:44.297Z,3.47
2023-05-01T18:10:12.693Z,3.85
2023-05-01T18:12:40.880Z,3.10
2023-05-01T18:15:10.035Z,2.60
2023-05-01T18:17:38.096Z,2.60
2023-05-01T18:20:10.125Z,3.15
2023-05-01T18:22:38.076Z,3.90
2023-05-01T18:25:06.953Z,3.22
2023-05-01T18:27:37.289Z,3.35
2023-05-01T18:30:05.724Z,3.40
2023-05-01T18:32:46.326Z,2.95
2023-05-01T18:35:18.864Z,3.72
2023-05-01T18:37:47.099Z,3.33
2023-05-01T18:40:15.062Z,3.30
2023-05-01T18:42:43.587Z,3.38
2023-05-01T18:45:11.865Z,3.58
2023-05-01T18:47:41.038Z,3.38
2023-05-01T18:50:10.400Z,3.47
2023-05-01T18:52:41.781Z,4.05
2023-05-01T18:55:11.322Z,5.28
2023-05-01T18:57:41.652Z,4.75
2023-05-01T19:00:11.224Z,12.13
2023-05-01T19:02:39.387Z,5.88
2023-05-01T19:05:08.684Z,4.50
2023-05-01T19:07:40.695Z,4.70
2023-05-01T19:10:09.937Z,4.97
2023-05-01T19:12:39.125Z,5.88
2023-05-01T19:15:08.172Z,5.20
2023-05-01T19:17:36.417Z,6.03
2023-05-01T19:20:05.606Z,5.30
2023-05-01T19:22:33.646Z,5.05
2023-05-01T19:25:03.283Z,5.65
2023-05-01T19:27:31.793Z,5.28
2023-05-01T19:30:01.223Z,5.68
2023-05-01T19:32:29.804Z,5.05
2023-05-01T19:34:57.849Z,4.80
2023-05-01T19:37:27.622Z,4.65
2023-05-01T19:39:55.999Z,5.07
2023-05-01T19:42:25.567Z,5.40
2023-05-01T19:44:53.670Z,7.32
2023-05-01T19:47:21.781Z,14.85
2023-05-01T19:49:49.957Z,13.43
2023-05-01T19:52:19.258Z,9.82
2023-05-01T19:54:47.663Z,11.38
2023-05-01T19:57:16.403Z,10.73
2023-05-01T19:59:45.746Z,9.40
2023-05-01T20:02:14.067Z,9.57
2023-05-01T20:04:42.213Z,11.10
2023-05-01T20:07:10.144Z,8.90
2023-05-01T20:09:38.190Z,8.70
2023-05-01T20:12:06.436Z,8.93
2023-05-01T20:14:34.488Z,8.65
2023-05-01T20:17:04.154Z,7.90
2023-05-01T20:19:32.227Z,8.20
2023-05-01T20:22:00.391Z,7.03
2023-05-01T20:24:28.349Z,7.80
2023-05-01T20:26:56.358Z,8.35
2023-05-01T20:29:24.361Z,7.47
2023-05-01T20:31:52.413Z,8.10
2023-05-01T20:34:23.343Z,8.65
2023-05-01T20:36:52.034Z,8.95
2023-05-01T20:39:20.102Z,8.90
2023-05-01T20:41:48.213Z,8.00
2023-05-01T20:44:16.437Z,7.68
2023-05-01T20:46:44.583Z,9.73
2023-05-01T20:49:15.660Z,9.50
2023-05-01T20:51:48.872Z,8.95
2023-05-01T20:54:16.831Z,9.02
2023-05-01T20:56:44.803Z,9.27
2023-05-01T20:59:22.070Z,8.63
2023-05-01T21:01:53.056Z,8.02
2023-05-01T21:04:21.052Z,8.43
2023-05-01T21:06:50.627Z,8.60
2023-05-01T21:09:19.227Z,7.63
2023-05-01T21:11:47.211Z,6.50
2023-05-01T21:14:16.148Z,7.32
2023-05-01T21:16:44.331Z,9.35
2023-05-01T21:19:13.011Z,9.00
2023-05-01T21:21:42.637Z,9.93
2023-05-01T21:24:21.336Z,9.85
2023-05-01T21:27:10.554Z,8.90
2023-05-01T21:29:40.001Z,8.02
2023-05-01T21:32:09.322Z,7.68
2023-05-01T21:34:37.470Z,8.38
2023-05-01T21:37:06.108Z,8.70
2023-05-01T21:39:35.528Z,8.23
2023-05-01T21:42:04.933Z,6.95
2023-05-01T21:44:32.957Z,6.60
2023-05-01T21:47:02.996Z,7.43
2023-05-01T21:49:31.074Z,7.55
2023-05-01T21:52:00.529Z,7.32
2023-05-01T21:54:28.866Z,7.97
2023-05-01T21:57:02.556Z,8.15
2023-05-01T21:59:36.556Z,8.02
2023-05-01T22:02:08.161Z,7.72
2023-05-01T22:04:36.930Z,7.57
2023-05-01T22:07:05.841Z,6.68
2023-05-01T22:09:34.367Z,7.40
2023-05-01T22:12:03.710Z,6.47
2023-05-01T22:14:46.256Z,5.88
2023-05-01T22:17:16.491Z,5.60
2023-05-01T22:19:44.530Z,6.20
2023-05-01T22:22:12.436Z,5.80
2023-05-01T22:24:40.369Z,6.35
2023-05-01T22:27:09.868Z,6.25
2023-05-01T22:29:37.982Z,6.63
2023-05-01T22:32:06.672Z,5.70
2023-05-01T22:34:34.640Z,5.85
2023-05-01T22:37:02.664Z,7.03
2023-05-01T22:39:30.718Z,6.47
2023-05-01T22:42:01.907Z,6.38
2023-05-01T22:44:31.321Z,5.85
2023-05-01T22:47:00.282Z,4.53
2023-05-01T22:49:28.683Z,4.93
2023-05-01T22:51:57.200Z,4.28
2023-05-01T22:54:25.515Z,4.05
2023-05-01T22:56:53.565Z,3.75
2023-05-01T22:59:22.099Z,3.53
2023-05-01T23:01:51.624Z,3.50
2023-05-01T23:04:19.831Z,3.53
2023-05-01T23:06:48.056Z,3.33
2023-05-01T23:09:15.999Z,2.70
2023-05-01T23:11:44.772Z,2.70
2023-05-01T23:14:12.943Z,2.75
2023-05-01T23:16:42.305Z,2.78
2023-05-01T23:19:20.125Z,2.88
2023-05-01T23:21:49.974Z,2.45
2023-05-01T23:24:19.789Z,3.13
2023-05-01T23:26:48.329Z,3.13
2023-05-01T23:29:19.381Z,2.58
2023-05-01T23:31:48.721Z,2.95
2023-05-01T23:34:18.295Z,2.50
2023-05-01T23:36:47.604Z,2.65
2023-05-01T23:39:16.146Z,2.45
2023-05-01T23:41:44.852Z,2.22
2023-05-01T23:44:12.793Z,2.50
2023-05-01T23:46:40.813Z,2.17
2023-05-01T23:49:08.927Z,2.78
2023-05-01T23:51:38.403Z,2.42
2023-05-01T23:54:06.583Z,2.65
2023-05-01T23:56:34.545Z,2.20
2023-05-01T23:59:02.723Z,2.40
